sensor_id;sensor_type;location;lat;lon;timestamp;P1;durP1;ratioP1;P2;durP2;ratioP2
65863;SDS011;52639;51.180;20.460;2023-06-14T00:02:08;11.30;;;6.30;;
65863;SDS011;52639;51.180;20.460;2023-06-14T00:06:13;9.80;;;5.93;;
65863;SDS011;52639;51.180;20.460;2023-06-14T00:10:16;11.13;;;6.30;;
65863;SDS011;52639;51.180;20.460;2023-06-14T00:14:19;9.80;;;5.75;;
65863;SDS011;52639;51.180;20.460;2023-06-14T00:18:22;11.13;;;6.25;;
65863;SDS011;52639;51.180;20.460;2023-06-14T00:22:29;10.50;;;6.20;;
65863;SDS011;52639;51.180;20.460;2023-06-14T00:26:38;13.35;;;6.57;;
65863;SDS011;52639;51.180;20.460;2023-06-14T00:30:42;14.48;;;6.38;;
65863;SDS011;52639;51.180;20.460;2023-06-14T00:34:48;10.63;;;6.53;;
65863;SDS011;52639;51.180;20.460;2023-06-14T00:38:55;12.70;;;6.43;;
65863;SDS011;52639;51.180;20.460;2023-06-14T00:42:58;11.95;;;6.50;;
65863;SDS011;52639;51.180;20.460;2023-06-14T00:47:01;9.80;;;7.00;;
65863;SDS011;52639;51.180;20.460;2023-06-14T00:51:04;11.32;;;6.22;;
65863;SDS011;52639;51.180;20.460;2023-06-14T00:55:20;10.48;;;7.10;;
65863;SDS011;52639;51.180;20.460;2023-06-14T00:59:31;14.35;;;7.50;;
65863;SDS011;52639;51.180;20.460;2023-06-14T01:03:34;11.57;;;6.85;;
65863;SDS011;52639;51.180;20.460;2023-06-14T01:07:41;12.75;;;7.25;;
65863;SDS011;52639;51.180;20.460;2023-06-14T01:11:56;11.77;;;7.03;;
65863;SDS011;52639;51.180;20.460;2023-06-14T01:16:07;10.93;;;6.38;;
65863;SDS011;52639;51.180;20.460;2023-06-14T01:20:11;14.23;;;6.70;;
65863;SDS011;52639;51.180;20.460;2023-06-14T01:24:17;14.27;;;7.97;;
65863;SDS011;52639;51.180;20.460;2023-06-14T01:28:26;11.82;;;8.15;;
65863;SDS011;52639;51.180;20.460;2023-06-14T01:32:34;12.52;;;8.07;;
65863;SDS011;52639;51.180;20.460;2023-06-14T01:36:38;16.42;;;8.95;;
65863;SDS011;52639;51.180;20.460;2023-06-14T01:40:46;15.52;;;8.50;;
65863;SDS011;52639;51.180;20.460;2023-06-14T01:44:53;16.40;;;9.13;;
65863;SDS011;52639;51.180;20.460;2023-06-14T01:49:00;12.25;;;8.38;;
65863;SDS011;52639;51.180;20.460;2023-06-14T01:53:13;12.95;;;7.93;;
65863;SDS011;52639;51.180;20.460;2023-06-14T01:57:17;11.73;;;7.78;;
65863;SDS011;52639;51.180;20.460;2023-06-14T02:01:21;12.00;;;8.23;;
65863;SDS011;52639;51.180;20.460;2023-06-14T02:05:25;13.88;;;9.15;;
65863;SDS011;52639;51.180;20.460;2023-06-14T02:09:42;13.98;;;9.07;;
65863;SDS011;52639;51.180;20.460;2023-06-14T02:13:46;14.95;;;9.70;;
65863;SDS011;52639;51.180;20.460;2023-06-14T02:17:52;15.15;;;9.38;;
65863;SDS011;52639;51.180;20.460;2023-06-14T02:21:58;14.52;;;9.57;;
65863;SDS011;52639;51.180;20.460;2023-06-14T02:26:01;14.88;;;10.30;;
65863;SDS011;52639;51.180;20.460;2023-06-14T02:30:06;16.70;;;10.05;;
65863;SDS011;52639;51.180;20.460;2023-06-14T02:34:10;18.83;;;11.05;;
65863;SDS011;52639;51.180;20.460;2023-06-14T02:38:13;16.13;;;10.30;;
65863;SDS011;52639;51.180;20.460;2023-06-14T02:42:16;17.20;;;10.27;;
65863;SDS011;52639;51.180;20.460;2023-06-14T02:46:20;21.17;;;11.27;;
65863;SDS011;52639;51.180;20.460;2023-06-14T02:50:23;21.48;;;11.63;;
65863;SDS011;52639;51.180;20.460;2023-06-14T02:54:26;19.85;;;11.82;;
65863;SDS011;52639;51.180;20.460;2023-06-14T02:58:29;19.77;;;11.82;;
65863;SDS011;52639;51.180;20.460;2023-06-14T03:02:34;22.20;;;12.40;;
65863;SDS011;52639;51.180;20.460;2023-06-14T03:06:38;19.17;;;11.70;;
65863;SDS011;52639;51.180;20.460;2023-06-14T03:10:41;19.20;;;11.70;;
65863;SDS011;52639;51.180;20.460;2023-06-14T03:14:45;20.08;;;11.88;;
65863;SDS011;52639;51.180;20.460;2023-06-14T03:18:49;20.13;;;12.48;;
65863;SDS011;52639;51.180;20.460;2023-06-14T03:22:53;18.23;;;11.13;;
65863;SDS011;52639;51.180;20.460;2023-06-14T03:26:56;15.68;;;11.05;;
65863;SDS011;52639;51.180;20.460;2023-06-14T03:30:59;19.25;;;11.68;;
65863;SDS011;52639;51.180;20.460;2023-06-14T03:35:05;14.82;;;10.93;;
65863;SDS011;52639;51.180;20.460;2023-06-14T03:39:09;15.65;;;10.43;;
65863;SDS011;52639;51.180;20.460;2023-06-14T03:43:12;18.02;;;11.82;;
65863;SDS011;52639;51.180;20.460;2023-06-14T03:47:15;18.10;;;11.93;;
65863;SDS011;52639;51.180;20.460;2023-06-14T03:51:20;19.00;;;12.38;;
65863;SDS011;52639;51.180;20.460;2023-06-14T03:55:23;19.92;;;12.32;;
65863;SDS011;52639;51.180;20.460;2023-06-14T03:59:28;19.75;;;11.60;;
65863;SDS011;52639;51.180;20.460;2023-06-14T04:03:31;18.05;;;11.45;;
65863;SDS011;52639;51.180;20.460;2023-06-14T04:07:36;15.77;;;10.40;;
65863;SDS011;52639;51.180;20.460;2023-06-14T04:11:40;17.17;;;10.02;;
65863;SDS011;52639;51.180;20.460;2023-06-14T04:15:44;19.83;;;9.95;;
65863;SDS011;52639;51.180;20.460;2023-06-14T04:19:47;14.27;;;9.77;;
65863;SDS011;52639;51.180;20.460;2023-06-14T04:23:51;16.48;;;9.77;;
65863;SDS011;52639;51.180;20.460;2023-06-14T04:27:56;16.75;;;10.20;;
65863;SDS011;52639;51.180;20.460;2023-06-14T04:31:59;16.92;;;10.50;;
65863;SDS011;52639;51.180;20.460;2023-06-14T04:36:03;13.00;;;8.07;;
65863;SDS011;52639;51.180;20.460;2023-06-14T04:40:08;15.48;;;9.63;;
65863;SDS011;52639;51.180;20.460;2023-06-14T04:44:12;15.38;;;9.77;;
65863;SDS011;52639;51.180;20.460;2023-06-14T04:48:18;16.25;;;9.80;;
65863;SDS011;52639;51.180;20.460;2023-06-14T04:52:21;18.35;;;9.50;;
65863;SDS011;52639;51.180;20.460;2023-06-14T04:56:28;16.02;;;8.82;;
65863;SDS011;52639;51.180;20.460;2023-06-14T05:00:31;13.07;;;8.40;;
65863;SDS011;52639;51.180;20.460;2023-06-14T05:04:34;14.80;;;9.10;;
65863;SDS011;52639;51.180;20.460;2023-06-14T05:08:40;12.63;;;7.85;;
65863;SDS011;52639;51.180;20.460;2023-06-14T05:12:44;11.82;;;7.68;;
65863;SDS011;52639;51.180;20.460;2023-06-14T05:16:49;12.52;;;7.57;;
65863;SDS011;52639;51.180;20.460;2023-06-14T05:20:52;9.80;;;7.32;;
65863;SDS011;52639;51.180;20.460;2023-06-14T05:24:55;11.00;;;7.43;;
65863;SDS011;52639;51.180;20.460;2023-06-14T05:28:59;10.90;;;7.72;;
65863;SDS011;52639;51.180;20.460;2023-06-14T05:33:02;10.45;;;7.40;;
65863;SDS011;52639;51.180;20.460;2023-06-14T05:37:06;10.65;;;7.05;;
65863;SDS011;52639;51.180;20.460;2023-06-14T05:41:09;17.25;;;13.55;;
65863;SDS011;52639;51.180;20.460;2023-06-14T05:45:14;14.82;;;10.38;;
65863;SDS011;52639;51.180;20.460;2023-06-14T05:49:18;11.88;;;6.90;;
65863;SDS011;52639;51.180;20.460;2023-06-14T05:53:21;22.90;;;15.63;;
65863;SDS011;52639;51.180;20.460;2023-06-14T05:57:24;9.60;;;5.93;;
65863;SDS011;52639;51.180;20.460;2023-06-14T06:01:27;13.63;;;7.72;;
65863;SDS011;52639;51.180;20.460;2023-06-14T06:05:31;9.70;;;5.93;;
65863;SDS011;52639;51.180;20.460;2023-06-14T06:09:34;10.13;;;6.07;;
65863;SDS011;52639;51.180;20.460;2023-06-14T06:13:38;9.23;;;5.78;;
65863;SDS011;52639;51.180;20.460;2023-06-14T06:17:43;9.57;;;5.95;;
65863;SDS011;52639;51.180;20.460;2023-06-14T06:21:46;9.20;;;5.68;;
65863;SDS011;52639;51.180;20.460;2023-06-14T06:25:49;7.90;;;5.68;;
65863;SDS011;52639;51.180;20.460;2023-06-14T06:29:53;9.18;;;5.50;;
65863;SDS011;52639;51.180;20.460;2023-06-14T06:33:57;15.73;;;5.57;;
65863;SDS011;52639;51.180;20.460;2023-06-14T06:38:00;9.25;;;5.68;;
65863;SDS011;52639;51.180;20.460;2023-06-14T06:42:03;8.52;;;5.60;;
65863;SDS011;52639;51.180;20.460;2023-06-14T06:46:07;10.27;;;5.68;;
65863;SDS011;52639;51.180;20.460;2023-06-14T06:50:13;10.48;;;5.47;;
65863;SDS011;52639;51.180;20.460;2023-06-14T06:54:18;9.02;;;5.47;;
65863;SDS011;52639;51.180;20.460;2023-06-14T06:58:21;11.35;;;5.90;;
65863;SDS011;52639;51.180;20.460;2023-06-14T07:02:24;11.20;;;6.90;;
65863;SDS011;52639;51.180;20.460;2023-06-14T07:06:31;9.00;;;6.10;;
65863;SDS011;52639;51.180;20.460;2023-06-14T07:10:34;12.90;;;6.25;;
65863;SDS011;52639;51.180;20.460;2023-06-14T07:14:38;10.25;;;6.68;;
65863;SDS011;52639;51.180;20.460;2023-06-14T07:18:41;11.05;;;5.97;;
65863;SDS011;52639;51.180;20.460;2023-06-14T07:22:46;9.38;;;6.32;;
65863;SDS011;52639;51.180;20.460;2023-06-14T07:26:49;11.15;;;5.88;;
65863;SDS011;52639;51.180;20.460;2023-06-14T07:30:52;12.25;;;5.50;;
65863;SDS011;52639;51.180;20.460;2023-06-14T07:34:57;9.70;;;6.10;;
65863;SDS011;52639;51.180;20.460;2023-06-14T07:39:01;10.23;;;7.15;;
65863;SDS011;52639;51.180;20.460;2023-06-14T07:43:05;9.73;;;5.90;;
65863;SDS011;52639;51.180;20.460;2023-06-14T07:47:08;9.65;;;5.43;;
65863;SDS011;52639;51.180;20.460;2023-06-14T07:51:11;9.93;;;5.65;;
65863;SDS011;52639;51.180;20.460;2023-06-14T07:55:18;10.98;;;5.47;;
65863;SDS011;52639;51.180;20.460;2023-06-14T07:59:21;8.27;;;4.78;;
65863;SDS011;52639;51.180;20.460;2023-06-14T08:03:24;13.07;;;5.25;;
65863;SDS011;52639;51.180;20.460;2023-06-14T08:07:27;7.55;;;5.20;;
65863;SDS011;52639;51.180;20.460;2023-06-14T08:11:32;6.95;;;4.88;;
65863;SDS011;52639;51.180;20.460;2023-06-14T08:15:35;7.32;;;5.38;;
65863;SDS011;52639;51.180;20.460;2023-06-14T08:19:38;10.95;;;5.72;;
65863;SDS011;52639;51.180;20.460;2023-06-14T08:23:47;9.93;;;5.53;;
65863;SDS011;52639;51.180;20.460;2023-06-14T08:27:55;10.00;;;5.43;;
65863;SDS011;52639;51.180;20.460;2023-06-14T08:32:04;7.60;;;5.28;;
65863;SDS011;52639;51.180;20.460;2023-06-14T08:36:08;7.32;;;5.38;;
65863;SDS011;52639;51.180;20.460;2023-06-14T08:40:16;10.32;;;5.40;;
65863;SDS011;52639;51.180;20.460;2023-06-14T08:44:23;10.07;;;5.43;;
65863;SDS011;52639;51.180;20.460;2023-06-14T08:48:26;7.68;;;5.18;;
65863;SDS011;52639;51.180;20.460;2023-06-14T08:52:29;7.43;;;5.30;;
65863;SDS011;52639;51.180;20.460;2023-06-14T08:56:40;9.30;;;5.40;;
65863;SDS011;52639;51.180;20.460;2023-06-14T09:00:47;12.02;;;5.05;;
65863;SDS011;52639;51.180;20.460;2023-06-14T09:04:51;8.57;;;4.60;;
65863;SDS011;52639;51.180;20.460;2023-06-14T09:08:55;8.02;;;4.47;;
65863;SDS011;52639;51.180;20.460;2023-06-14T09:13:00;9.38;;;4.97;;
65863;SDS011;52639;51.180;20.460;2023-06-14T09:17:05;7.53;;;4.80;;
65863;SDS011;52639;51.180;20.460;2023-06-14T09:21:10;6.80;;;4.53;;
65863;SDS011;52639;51.180;20.460;2023-06-14T09:25:13;7.47;;;5.05;;
65863;SDS011;52639;51.180;20.460;2023-06-14T09:29:19;8.95;;;4.72;;
65863;SDS011;52639;51.180;20.460;2023-06-14T09:33:24;10.50;;;4.80;;
65863;SDS011;52639;51.180;20.460;2023-06-14T09:37:29;9.73;;;4.78;;
65863;SDS011;52639;51.180;20.460;2023-06-14T09:41:34;7.43;;;4.60;;
65863;SDS011;52639;51.180;20.460;2023-06-14T09:45:38;8.10;;;4.95;;
65863;SDS011;52639;51.180;20.460;2023-06-14T09:49:43;7.65;;;4.30;;
65863;SDS011;52639;51.180;20.460;2023-06-14T09:53:48;7.47;;;4.25;;
65863;SDS011;52639;51.180;20.460;2023-06-14T09:57:52;8.18;;;4.30;;
65863;SDS011;52639;51.180;20.460;2023-06-14T10:01:57;8.57;;;4.50;;
65863;SDS011;52639;51.180;20.460;2023-06-14T10:06:05;7.93;;;4.80;;
65863;SDS011;52639;51.180;20.460;2023-06-14T10:10:11;7.43;;;4.68;;
65863;SDS011;52639;51.180;20.460;2023-06-14T10:14:14;6.90;;;4.60;;
65863;SDS011;52639;51.180;20.460;2023-06-14T10:18:21;8.38;;;5.55;;
65863;SDS011;52639;51.180;20.460;2023-06-14T10:22:32;8.68;;;5.03;;
65863;SDS011;52639;51.180;20.460;2023-06-14T10:26:49;8.10;;;5.03;;
65863;SDS011;52639;51.180;20.460;2023-06-14T10:35:17;7.57;;;5.03;;
65863;SDS011;52639;51.180;20.460;2023-06-14T10:39:21;7.78;;;5.15;;
65863;SDS011;52639;51.180;20.460;2023-06-14T10:43:24;8.88;;;4.90;;
65863;SDS011;52639;51.180;20.460;2023-06-14T10:47:27;9.52;;;5.00;;
65863;SDS011;52639;51.180;20.460;2023-06-14T10:51:38;7.85;;;4.88;;
65863;SDS011;52639;51.180;20.460;2023-06-14T10:55:51;8.00;;;4.88;;
65863;SDS011;52639;51.180;20.460;2023-06-14T10:59:54;8.73;;;5.20;;
65863;SDS011;52639;51.180;20.460;2023-06-14T11:04:00;7.85;;;5.05;;
65863;SDS011;52639;51.180;20.460;2023-06-14T11:08:17;6.30;;;4.55;;
65863;SDS011;52639;51.180;20.460;2023-06-14T11:12:50;9.65;;;5.35;;
65863;SDS011;52639;51.180;20.460;2023-06-14T11:16:59;12.02;;;7.70;;
65863;SDS011;52639;51.180;20.460;2023-06-14T11:21:02;11.63;;;6.93;;
65863;SDS011;52639;51.180;20.460;2023-06-14T11:25:08;10.13;;;6.20;;
65863;SDS011;52639;51.180;20.460;2023-06-14T11:29:14;9.63;;;5.85;;
65863;SDS011;52639;51.180;20.460;2023-06-14T11:33:18;12.45;;;6.53;;
65863;SDS011;52639;51.180;20.460;2023-06-14T11:37:21;8.93;;;6.25;;
65863;SDS011;52639;51.180;20.460;2023-06-14T11:41:26;8.82;;;6.30;;
65863;SDS011;52639;51.180;20.460;2023-06-14T11:45:36;9.63;;;6.45;;
65863;SDS011;52639;51.180;20.460;2023-06-14T11:49:40;11.13;;;7.13;;
65863;SDS011;52639;51.180;20.460;2023-06-14T11:53:45;11.23;;;7.47;;
65863;SDS011;52639;51.180;20.460;2023-06-14T11:57:58;12.65;;;7.82;;
65863;SDS011;52639;51.180;20.460;2023-06-14T12:02:13;12.13;;;6.97;;
65863;SDS011;52639;51.180;20.460;2023-06-14T12:06:25;9.57;;;6.95;;
65863;SDS011;52639;51.180;20.460;2023-06-14T12:10:39;9.90;;;6.88;;
65863;SDS011;52639;51.180;20.460;2023-06-14T12:14:44;8.48;;;6.72;;
65863;SDS011;52639;51.180;20.460;2023-06-14T12:18:50;10.70;;;7.07;;
65863;SDS011;52639;51.180;20.460;2023-06-14T12:22:56;10.10;;;7.00;;
65863;SDS011;52639;51.180;20.460;2023-06-14T12:27:02;9.32;;;6.60;;
65863;SDS011;52639;51.180;20.460;2023-06-14T12:31:06;11.20;;;6.80;;
65863;SDS011;52639;51.180;20.460;2023-06-14T12:35:11;11.55;;;6.20;;
65863;SDS011;52639;51.180;20.460;2023-06-14T12:39:15;10.18;;;6.18;;
65863;SDS011;52639;51.180;20.460;2023-06-14T12:43:19;9.65;;;6.35;;
65863;SDS011;52639;51.180;20.460;2023-06-14T12:47:22;11.98;;;6.10;;
65863;SDS011;52639;51.180;20.460;2023-06-14T12:51:39;9.73;;;6.25;;
65863;SDS011;52639;51.180;20.460;2023-06-14T12:55:42;8.65;;;5.93;;
65863;SDS011;52639;51.180;20.460;2023-06-14T12:59:48;8.48;;;5.72;;
65863;SDS011;52639;51.180;20.460;2023-06-14T13:03:50;8.35;;;6.00;;
65863;SDS011;52639;51.180;20.460;2023-06-14T13:07:56;11.05;;;5.70;;
65863;SDS011;52639;51.180;20.460;2023-06-14T13:12:00;8.70;;;5.13;;
65863;SDS011;52639;51.180;20.460;2023-06-14T13:16:03;8.23;;;5.35;;
65863;SDS011;52639;51.180;20.460;2023-06-14T13:20:07;9.50;;;5.63;;
65863;SDS011;52639;51.180;20.460;2023-06-14T13:24:12;8.25;;;5.15;;
65863;SDS011;52639;51.180;20.460;2023-06-14T13:28:15;9.88;;;5.50;;
65863;SDS011;52639;51.180;20.460;2023-06-14T13:32:22;9.20;;;5.40;;
65863;SDS011;52639;51.180;20.460;2023-06-14T13:36:25;9.85;;;5.70;;
65863;SDS011;52639;51.180;20.460;2023-06-14T13:40:32;8.52;;;5.75;;
65863;SDS011;52639;51.180;20.460;2023-06-14T13:44:36;7.68;;;5.60;;
65863;SDS011;52639;51.180;20.460;2023-06-14T13:48:39;8.50;;;5.60;;
65863;SDS011;52639;51.180;20.460;2023-06-14T13:52:42;8.32;;;5.88;;
65863;SDS011;52639;51.180;20.460;2023-06-14T13:56:46;8.82;;;5.68;;
65863;SDS011;52639;51.180;20.460;2023-06-14T14:00:51;8.95;;;6.05;;
65863;SDS011;52639;51.180;20.460;2023-06-14T14:04:55;9.45;;;5.90;;
65863;SDS011;52639;51.180;20.460;2023-06-14T14:08:58;10.02;;;5.85;;
65863;SDS011;52639;51.180;20.460;2023-06-14T14:13:03;11.57;;;6.90;;
65863;SDS011;52639;51.180;20.460;2023-06-14T14:17:06;9.73;;;6.43;;
65863;SDS011;52639;51.180;20.460;2023-06-14T14:21:09;11.45;;;6.57;;
65863;SDS011;52639;51.180;20.460;2023-06-14T14:25:13;14.15;;;7.28;;
65863;SDS011;52639;51.180;20.460;2023-06-14T14:29:25;11.55;;;7.05;;
65863;SDS011;52639;51.180;20.460;2023-06-14T14:33:39;15.25;;;8.38;;
65863;SDS011;52639;51.180;20.460;2023-06-14T14:37:45;21.02;;;9.32;;
65863;SDS011;52639;51.180;20.460;2023-06-14T14:42:10;26.98;;;10.80;;
65863;SDS011;52639;51.180;20.460;2023-06-14T14:46:18;21.25;;;10.40;;
65863;SDS011;52639;51.180;20.460;2023-06-14T14:50:26;27.70;;;12.77;;
65863;SDS011;52639;51.180;20.460;2023-06-14T14:54:30;28.90;;;12.93;;
65863;SDS011;52639;51.180;20.460;2023-06-14T14:58:51;15.52;;;10.93;;
65863;SDS011;52639;51.180;20.460;2023-06-14T15:03:32;16.33;;;11.70;;
65863;SDS011;52639;51.180;20.460;2023-06-14T15:07:45;24.25;;;13.63;;
65863;SDS011;52639;51.180;20.460;2023-06-14T15:11:51;18.73;;;12.10;;
65863;SDS011;52639;51.180;20.460;2023-06-14T15:16:16;26.35;;;11.98;;
65863;SDS011;52639;51.180;20.460;2023-06-14T15:20:52;20.13;;;12.23;;
65863;SDS011;52639;51.180;20.460;2023-06-14T15:25:01;16.95;;;11.23;;
65863;SDS011;52639;51.180;20.460;2023-06-14T15:33:40;16.77;;;12.35;;
65863;SDS011;52639;51.180;20.460;2023-06-14T15:38:22;20.00;;;12.63;;
65863;SDS011;52639;51.180;20.460;2023-06-14T15:42:31;20.92;;;13.68;;
65863;SDS011;52639;51.180;20.460;2023-06-14T15:46:35;19.05;;;11.50;;
65863;SDS011;52639;51.180;20.460;2023-06-14T15:50:39;18.92;;;12.18;;
65863;SDS011;52639;51.180;20.460;2023-06-14T15:54:47;19.38;;;12.60;;
65863;SDS011;52639;51.180;20.460;2023-06-14T15:58:58;20.08;;;12.35;;
65863;SDS011;52639;51.180;20.460;2023-06-14T16:03:29;18.02;;;12.25;;
65863;SDS011;52639;51.180;20.460;2023-06-14T16:08:12;50.65;;;18.40;;
65863;SDS011;52639;51.180;20.460;2023-06-14T16:17:00;22.08;;;14.60;;
65863;SDS011;52639;51.180;20.460;2023-06-14T16:21:06;18.70;;;13.68;;
65863;SDS011;52639;51.180;20.460;2023-06-14T16:25:11;21.42;;;13.13;;
65863;SDS011;52639;51.180;20.460;2023-06-14T16:29:16;19.25;;;14.55;;
65863;SDS011;52639;51.180;20.460;2023-06-14T16:33:19;23.27;;;16.25;;
65863;SDS011;52639;51.180;20.460;2023-06-14T16:37:22;29.15;;;18.52;;
65863;SDS011;52639;51.180;20.460;2023-06-14T16:41:25;26.30;;;18.25;;
65863;SDS011;52639;51.180;20.460;2023-06-14T16:45:30;26.33;;;18.23;;
65863;SDS011;52639;51.180;20.460;2023-06-14T16:49:33;22.08;;;16.17;;
65863;SDS011;52639;51.180;20.460;2023-06-14T16:53:36;21.85;;;14.88;;
65863;SDS011;52639;51.180;20.460;2023-06-14T16:57:39;23.13;;;16.65;;
65863;SDS011;52639;51.180;20.460;2023-06-14T17:01:44;31.38;;;20.38;;
65863;SDS011;52639;51.180;20.460;2023-06-14T17:05:54;34.22;;;21.92;;
65863;SDS011;52639;51.180;20.460;2023-06-14T17:09:58;37.67;;;24.10;;
65863;SDS011;52639;51.180;20.460;2023-06-14T17:14:01;43.05;;;25.02;;
65863;SDS011;52639;51.180;20.460;2023-06-14T17:18:08;46.25;;;27.20;;
65863;SDS011;52639;51.180;20.460;2023-06-14T17:22:12;47.83;;;28.30;;
65863;SDS011;52639;51.180;20.460;2023-06-14T17:26:15;50.17;;;28.10;;
65863;SDS011;52639;51.180;20.460;2023-06-14T17:30:19;48.97;;;29.98;;
65863;SDS011;52639;51.180;20.460;2023-06-14T17:34:24;48.78;;;29.73;;
65863;SDS011;52639;51.180;20.460;2023-06-14T17:38:27;46.05;;;28.92;;
65863;SDS011;52639;51.180;20.460;2023-06-14T17:42:32;51.33;;;30.52;;
65863;SDS011;52639;51.180;20.460;2023-06-14T17:46:35;52.65;;;31.08;;
65863;SDS011;52639;51.180;20.460;2023-06-14T17:50:40;60.72;;;32.90;;
65863;SDS011;52639;51.180;20.460;2023-06-14T17:54:43;38.33;;;25.23;;
65863;SDS011;52639;51.180;20.460;2023-06-14T17:58:46;55.70;;;30.60;;
65863;SDS011;52639;51.180;20.460;2023-06-14T18:02:49;45.78;;;27.80;;
65863;SDS011;52639;51.180;20.460;2023-06-14T18:06:54;47.25;;;28.38;;
65863;SDS011;52639;51.180;20.460;2023-06-14T18:10:58;54.33;;;31.05;;
65863;SDS011;52639;51.180;20.460;2023-06-14T18:15:09;54.67;;;30.90;;
65863;SDS011;52639;51.180;20.460;2023-06-14T18:19:13;47.97;;;27.60;;
65863;SDS011;52639;51.180;20.460;2023-06-14T18:23:20;53.47;;;30.40;;
65863;SDS011;52639;51.180;20.460;2023-06-14T18:27:23;47.28;;;28.80;;
65863;SDS011;52639;51.180;20.460;2023-06-14T18:31:26;86.68;;;40.35;;
65863;SDS011;52639;51.180;20.460;2023-06-14T18:35:32;39.35;;;25.45;;
65863;SDS011;52639;51.180;20.460;2023-06-14T18:39:38;44.78;;;27.23;;
65863;SDS011;52639;51.180;20.460;2023-06-14T18:43:41;47.70;;;29.75;;
65863;SDS011;52639;51.180;20.460;2023-06-14T18:47:45;37.03;;;21.92;;
65863;SDS011;52639;51.180;20.460;2023-06-14T18:51:52;38.95;;;23.10;;
65863;SDS011;52639;51.180;20.460;2023-06-14T18:55:57;30.13;;;22.30;;
65863;SDS011;52639;51.180;20.460;2023-06-14T19:00:01;39.25;;;24.20;;
65863;SDS011;52639;51.180;20.460;2023-06-14T19:04:06;39.08;;;25.15;;
65863;SDS011;52639;51.180;20.460;2023-06-14T19:08:12;40.80;;;26.67;;
65863;SDS011;52639;51.180;20.460;2023-06-14T19:12:20;42.38;;;26.92;;
65863;SDS011;52639;51.180;20.460;2023-06-14T19:16:28;35.78;;;25.75;;
65863;SDS011;52639;51.180;20.460;2023-06-14T19:20:32;52.20;;;34.55;;
65863;SDS011;52639;51.180;20.460;2023-06-14T19:24:37;50.10;;;32.08;;
65863;SDS011;52639;51.180;20.460;2023-06-14T19:28:51;38.20;;;25.60;;
65863;SDS011;52639;51.180;20.460;2023-06-14T19:32:56;37.45;;;25.17;;
65863;SDS011;52639;51.180;20.460;2023-06-14T19:37:00;38.33;;;25.10;;
65863;SDS011;52639;51.180;20.460;2023-06-14T19:41:06;33.58;;;23.40;;
65863;SDS011;52639;51.180;20.460;2023-06-14T19:45:10;33.75;;;23.50;;
65863;SDS011;52639;51.180;20.460;2023-06-14T19:49:14;36.22;;;23.90;;
65863;SDS011;52639;51.180;20.460;2023-06-14T19:53:17;36.80;;;23.73;;
65863;SDS011;52639;51.180;20.460;2023-06-14T19:57:21;40.33;;;24.60;;
65863;SDS011;52639;51.180;20.460;2023-06-14T20:01:28;52.10;;;28.45;;
65863;SDS011;52639;51.180;20.460;2023-06-14T20:05:41;47.42;;;27.30;;
65863;SDS011;52639;51.180;20.460;2023-06-14T20:09:45;44.42;;;26.67;;
65863;SDS011;52639;51.180;20.460;2023-06-14T20:13:51;51.10;;;29.48;;
65863;SDS011;52639;51.180;20.460;2023-06-14T20:17:57;58.55;;;27.75;;
65863;SDS011;52639;51.180;20.460;2023-06-14T20:22:00;57.42;;;29.80;;
65863;SDS011;52639;51.180;20.460;2023-06-14T20:26:03;51.53;;;28.05;;
65863;SDS011;52639;51.180;20.460;2023-06-14T20:30:07;54.50;;;29.23;;
65863;SDS011;52639;51.180;20.460;2023-06-14T20:34:13;58.10;;;29.55;;
65863;SDS011;52639;51.180;20.460;2023-06-14T20:38:16;54.67;;;30.58;;
65863;SDS011;52639;51.180;20.460;2023-06-14T20:42:19;55.33;;;31.77;;
65863;SDS011;52639;51.180;20.460;2023-06-14T20:46:25;52.17;;;28.73;;
65863;SDS011;52639;51.180;20.460;2023-06-14T20:50:32;51.47;;;28.83;;
65863;SDS011;52639;51.180;20.460;2023-06-14T20:54:35;46.78;;;25.83;;
65863;SDS011;52639;51.180;20.460;2023-06-14T20:58:40;52.15;;;28.10;;
65863;SDS011;52639;51.180;20.460;2023-06-14T21:02:43;55.38;;;29.67;;
65863;SDS011;52639;51.180;20.460;2023-06-14T21:06:48;55.65;;;29.45;;
65863;SDS011;52639;51.180;20.460;2023-06-14T21:10:52;55.63;;;30.17;;
65863;SDS011;52639;51.180;20.460;2023-06-14T21:14:57;49.42;;;28.67;;
65863;SDS011;52639;51.180;20.460;2023-06-14T21:19:00;51.67;;;27.77;;
65863;SDS011;52639;51.180;20.460;2023-06-14T21:23:05;50.40;;;28.98;;
65863;SDS011;52639;51.180;20.460;2023-06-14T21:27:08;49.97;;;28.60;;
65863;SDS011;52639;51.180;20.460;2023-06-14T21:31:13;47.97;;;28.40;;
65863;SDS011;52639;51.180;20.460;2023-06-14T21:35:20;56.40;;;29.65;;
65863;SDS011;52639;51.180;20.460;2023-06-14T21:39:25;54.67;;;31.23;;
65863;SDS011;52639;51.180;20.460;2023-06-14T21:43:28;53.53;;;29.70;;
65863;SDS011;52639;51.180;20.460;2023-06-14T21:47:37;49.30;;;28.15;;
65863;SDS011;52639;51.180;20.460;2023-06-14T21:51:41;56.20;;;28.50;;
65863;SDS011;52639;51.180;20.460;2023-06-14T21:55:47;58.17;;;28.58;;
65863;SDS011;52639;51.180;20.460;2023-06-14T21:59:53;53.28;;;27.40;;
65863;SDS011;52639;51.180;20.460;2023-06-14T22:03:58;56.95;;;27.25;;
65863;SDS011;52639;51.180;20.460;2023-06-14T22:08:01;56.50;;;26.27;;
65863;SDS011;52639;51.180;20.460;2023-06-14T22:12:10;51.70;;;25.80;;
65863;SDS011;52639;51.180;20.460;2023-06-14T22:16:16;60.33;;;26.65;;
65863;SDS011;52639;51.180;20.460;2023-06-14T22:20:22;59.05;;;25.98;;
65863;SDS011;52639;51.180;20.460;2023-06-14T22:24:29;54.90;;;24.60;;
65863;SDS011;52639;51.180;20.460;2023-06-14T22:28:35;58.42;;;25.65;;
65863;SDS011;52639;51.180;20.460;2023-06-14T22:32:43;116.38;;;28.05;;
65863;SDS011;52639;51.180;20.460;2023-06-14T22:36:50;60.55;;;26.00;;
65863;SDS011;52639;51.180;20.460;2023-06-14T22:40:55;56.38;;;26.15;;
65863;SDS011;52639;51.180;20.460;2023-06-14T22:45:01;49.33;;;23.73;;
65863;SDS011;52639;51.180;20.460;2023-06-14T22:49:05;55.25;;;25.67;;
65863;SDS011;52639;51.180;20.460;2023-06-14T22:53:08;49.95;;;24.30;;
65863;SDS011;52639;51.180;20.460;2023-06-14T22:57:12;67.78;;;30.70;;
65863;SDS011;52639;51.180;20.460;2023-06-14T23:05:45;51.78;;;23.83;;
65863;SDS011;52639;51.180;20.460;2023-06-14T23:09:49;49.67;;;23.98;;
65863;SDS011;52639;51.180;20.460;2023-06-14T23:13:57;43.92;;;23.05;;
65863;SDS011;52639;51.180;20.460;2023-06-14T23:18:03;42.15;;;21.67;;
65863;SDS011;52639;51.180;20.460;2023-06-14T23:22:06;49.33;;;22.88;;
65863;SDS011;52639;51.180;20.460;2023-06-14T23:26:17;47.50;;;22.52;;
65863;SDS011;52639;51.180;20.460;2023-06-14T23:30:21;42.90;;;22.00;;
65863;SDS011;52639;51.180;20.460;2023-06-14T23:34:28;34.88;;;20.13;;
65863;SDS011;52639;51.180;20.460;2023-06-14T23:38:35;34.30;;;19.95;;
65863;SDS011;52639;51.180;20.460;2023-06-14T23:42:48;37.92;;;21.00;;
65863;SDS011;52639;51.180;20.460;2023-06-14T23:46:55;35.78;;;20.42;;
65863;SDS011;52639;51.180;20.460;2023-06-14T23:51:08;37.13;;;20.33;;
65863;SDS011;52639;51.180;20.460;2023-06-14T23:55:11;41.53;;;22.08;;
65863;SDS011;52639;51.180;20.460;2023-06-14T23:59:20;41.33;;;21.90;;
